<?xml version="1.0" encoding="utf-8"?>
<gpx xmlns:xsi="http://www.w3.org/2001/XMLSchema-instance" xmlns:xsd="http://www.w3.org/2001/XMLSchema" version="1.1" creator="Shapelink.com" xmlns="http://www.topografix.com/GPX/1/1" xmlns:gpxtpx="http://www.garmin.com/xmlschemas/TrackPointExtension/v1">
  <metadata>
    <name>Cykling 7.84 km, 2017-05-10</name>
    <desc></desc>
    <author><name>Morten Hedlund</name></author> 
    <time>2017-05-10T17:35:08Z</time>
  </metadata>
  <trk>
    <name>Cykling 7.84 km, 2017-05-10</name>
    <trkseg>
      <trkpt lat="59.027278449651" lon="12.224112081867">
        <ele>137</ele>
        <time>2017-05-10T17:35:08Z</time>
      </trkpt>
      <trkpt lat="59.027684804163" lon="12.224079811552">
        <ele>136.4</ele>
        <time>2017-05-10T17:35:16Z</time>
      </trkpt>
      <trkpt lat="59.027734592649" lon="12.224095653343">
        <ele>136</ele>
        <time>2017-05-10T17:35:17Z</time>
      </trkpt>
      <trkpt lat="59.0277789329" lon="12.224138568671">
        <ele>135.8</ele>
        <time>2017-05-10T17:35:18Z</time>
      </trkpt>
      <trkpt lat="59.027813466328" lon="12.224205791509">
        <ele>135.6</ele>
        <time>2017-05-10T17:35:19Z</time>
      </trkpt>
      <trkpt lat="59.027832744698" lon="12.224499493285">
        <ele>135.2</ele>
        <time>2017-05-10T17:35:22Z</time>
      </trkpt>
      <trkpt lat="59.027832325603" lon="12.224618683903">
        <ele>134.4</ele>
        <time>2017-05-10T17:35:23Z</time>
      </trkpt>
      <trkpt lat="59.02782754792" lon="12.224747262249">
        <ele>133.2</ele>
        <time>2017-05-10T17:35:24Z</time>
      </trkpt>
      <trkpt lat="59.027820507124" lon="12.224884138676">
        <ele>131.8</ele>
        <time>2017-05-10T17:35:25Z</time>
      </trkpt>
      <trkpt lat="59.027812209043" lon="12.225035348152">
        <ele>131.2</ele>
        <time>2017-05-10T17:35:26Z</time>
      </trkpt>
      <trkpt lat="59.027802821315" lon="12.225191335311">
        <ele>130.8</ele>
        <time>2017-05-10T17:35:27Z</time>
      </trkpt>
      <trkpt lat="59.027785973696" lon="12.225521079257">
        <ele>129</ele>
        <time>2017-05-10T17:35:29Z</time>
      </trkpt>
      <trkpt lat="59.027767282059" lon="12.226005469258">
        <ele>128.4</ele>
        <time>2017-05-10T17:35:32Z</time>
      </trkpt>
      <trkpt lat="59.027769628991" lon="12.226166150281">
        <ele>127.4</ele>
        <time>2017-05-10T17:35:33Z</time>
      </trkpt>
      <trkpt lat="59.027812041405" lon="12.226451302519">
        <ele>127</ele>
        <time>2017-05-10T17:35:35Z</time>
      </trkpt>
      <trkpt lat="59.027973644437" lon="12.226883138007">
        <ele>127.6</ele>
        <time>2017-05-10T17:35:39Z</time>
      </trkpt>
      <trkpt lat="59.028096271634" lon="12.227002412444">
        <ele>128.4</ele>
        <time>2017-05-10T17:35:41Z</time>
      </trkpt>
      <trkpt lat="59.028226442541" lon="12.227086147625">
        <ele>128.8</ele>
        <time>2017-05-10T17:35:43Z</time>
      </trkpt>
      <trkpt lat="59.028699516977" lon="12.227343136679">
        <ele>128.2</ele>
        <time>2017-05-10T17:35:50Z</time>
      </trkpt>
      <trkpt lat="59.028944017" lon="12.227489149377">
        <ele>128.2</ele>
        <time>2017-05-10T17:35:55Z</time>
      </trkpt>
      <trkpt lat="59.029098830693" lon="12.22756936416">
        <ele>129</ele>
        <time>2017-05-10T17:36:00Z</time>
      </trkpt>
      <trkpt lat="59.029133783216" lon="12.227581434096">
        <ele>129</ele>
        <time>2017-05-10T17:36:01Z</time>
      </trkpt>
      <trkpt lat="59.029175189802" lon="12.227587133788">
        <ele>128.8</ele>
        <time>2017-05-10T17:36:02Z</time>
      </trkpt>
      <trkpt lat="59.029264792313" lon="12.227508427747">
        <ele>128.4</ele>
        <time>2017-05-10T17:36:04Z</time>
      </trkpt>
      <trkpt lat="59.029341151422" lon="12.227331234381">
        <ele>127.2</ele>
        <time>2017-05-10T17:36:06Z</time>
      </trkpt>
      <trkpt lat="59.029378367058" lon="12.227220174206">
        <ele>127</ele>
        <time>2017-05-10T17:36:07Z</time>
      </trkpt>
      <trkpt lat="59.029416923798" lon="12.227105090719">
        <ele>126.6</ele>
        <time>2017-05-10T17:36:08Z</time>
      </trkpt>
      <trkpt lat="59.029459420031" lon="12.226982714979">
        <ele>126.2</ele>
        <time>2017-05-10T17:36:09Z</time>
      </trkpt>
      <trkpt lat="59.029602582883" lon="12.226601003253">
        <ele>124.8</ele>
        <time>2017-05-10T17:36:12Z</time>
      </trkpt>
      <trkpt lat="59.029710457936" lon="12.226338565964">
        <ele>123.2</ele>
        <time>2017-05-10T17:36:14Z</time>
      </trkpt>
      <trkpt lat="59.029823194491" lon="12.226066238033">
        <ele>122.2</ele>
        <time>2017-05-10T17:36:16Z</time>
      </trkpt>
      <trkpt lat="59.029987731188" lon="12.225647897404">
        <ele>120.4</ele>
        <time>2017-05-10T17:36:19Z</time>
      </trkpt>
      <trkpt lat="59.030100803019" lon="12.225366852297">
        <ele>120.2</ele>
        <time>2017-05-10T17:36:21Z</time>
      </trkpt>
      <trkpt lat="59.030429122042" lon="12.224544084993">
        <ele>119.8</ele>
        <time>2017-05-10T17:36:27Z</time>
      </trkpt>
      <trkpt lat="59.030793986149" lon="12.223585782366">
        <ele>121.6</ele>
        <time>2017-05-10T17:36:34Z</time>
      </trkpt>
      <trkpt lat="59.030900771555" lon="12.223309012028">
        <ele>121.4</ele>
        <time>2017-05-10T17:36:36Z</time>
      </trkpt>
      <trkpt lat="59.031157760609" lon="12.222638460028">
        <ele>120.8</ele>
        <time>2017-05-10T17:36:41Z</time>
      </trkpt>
      <trkpt lat="59.031436039689" lon="12.221801862589">
        <ele>121.6</ele>
        <time>2017-05-10T17:36:47Z</time>
      </trkpt>
      <trkpt lat="59.031610550847" lon="12.221040618431">
        <ele>121.6</ele>
        <time>2017-05-10T17:36:52Z</time>
      </trkpt>
      <trkpt lat="59.031815404483" lon="12.220113580291">
        <ele>121.6</ele>
        <time>2017-05-10T17:36:58Z</time>
      </trkpt>
      <trkpt lat="59.031949095788" lon="12.219316796877">
        <ele>122.4</ele>
        <time>2017-05-10T17:37:03Z</time>
      </trkpt>
      <trkpt lat="59.031971224004" lon="12.219159887709">
        <ele>122.8</ele>
        <time>2017-05-10T17:37:04Z</time>
      </trkpt>
      <trkpt lat="59.032042889249" lon="12.21855379252">
        <ele>124</ele>
        <time>2017-05-10T17:37:08Z</time>
      </trkpt>
      <trkpt lat="59.032066023293" lon="12.218280039666">
        <ele>124.8</ele>
        <time>2017-05-10T17:37:10Z</time>
      </trkpt>
      <trkpt lat="59.032073986098" lon="12.218149449664">
        <ele>125.2</ele>
        <time>2017-05-10T17:37:11Z</time>
      </trkpt>
      <trkpt lat="59.032086726586" lon="12.217897908845">
        <ele>126.4</ele>
        <time>2017-05-10T17:37:13Z</time>
      </trkpt>
      <trkpt lat="59.032098712703" lon="12.217389295153">
        <ele>127.4</ele>
        <time>2017-05-10T17:37:17Z</time>
      </trkpt>
      <trkpt lat="59.032100724359" lon="12.217259543341">
        <ele>127.6</ele>
        <time>2017-05-10T17:37:18Z</time>
      </trkpt>
      <trkpt lat="59.032094270296" lon="12.216601983286">
        <ele>128.2</ele>
        <time>2017-05-10T17:37:23Z</time>
      </trkpt>
      <trkpt lat="59.03208806769" lon="12.216339126902">
        <ele>128.4</ele>
        <time>2017-05-10T17:37:25Z</time>
      </trkpt>
      <trkpt lat="59.032045990552" lon="12.215205642565">
        <ele>127.6</ele>
        <time>2017-05-10T17:37:33Z</time>
      </trkpt>
      <trkpt lat="59.032038782118" lon="12.21505602565">
        <ele>127.4</ele>
        <time>2017-05-10T17:37:34Z</time>
      </trkpt>
      <trkpt lat="59.0320034105" lon="12.214609102742">
        <ele>126.4</ele>
        <time>2017-05-10T17:37:37Z</time>
      </trkpt>
      <trkpt lat="59.031959154068" lon="12.213961936243">
        <ele>126</ele>
        <time>2017-05-10T17:37:41Z</time>
      </trkpt>
      <trkpt lat="59.031940630069" lon="12.213620625275">
        <ele>125</ele>
        <time>2017-05-10T17:37:43Z</time>
      </trkpt>
      <trkpt lat="59.031930068875" lon="12.213277218832">
        <ele>123.6</ele>
        <time>2017-05-10T17:37:45Z</time>
      </trkpt>
      <trkpt lat="59.031934008368" lon="12.213101701846">
        <ele>123.2</ele>
        <time>2017-05-10T17:37:46Z</time>
      </trkpt>
      <trkpt lat="59.031946497399" lon="12.212926436317">
        <ele>123.4</ele>
        <time>2017-05-10T17:37:47Z</time>
      </trkpt>
      <trkpt lat="59.03204783457" lon="12.212423522317">
        <ele>122</ele>
        <time>2017-05-10T17:37:50Z</time>
      </trkpt>
      <trkpt lat="59.032273726775" lon="12.211868808175">
        <ele>121.4</ele>
        <time>2017-05-10T17:37:54Z</time>
      </trkpt>
      <trkpt lat="59.032416889627" lon="12.211667307299">
        <ele>121.2</ele>
        <time>2017-05-10T17:37:56Z</time>
      </trkpt>
      <trkpt lat="59.032487465225" lon="12.211579297349">
        <ele>121</ele>
        <time>2017-05-10T17:37:57Z</time>
      </trkpt>
      <trkpt lat="59.032623587281" lon="12.211400092327">
        <ele>121.2</ele>
        <time>2017-05-10T17:37:59Z</time>
      </trkpt>
      <trkpt lat="59.032753758188" lon="12.211214517061">
        <ele>122.2</ele>
        <time>2017-05-10T17:38:01Z</time>
      </trkpt>
      <trkpt lat="59.033205458779" lon="12.210594675556">
        <ele>122.4</ele>
        <time>2017-05-10T17:38:08Z</time>
      </trkpt>
      <trkpt lat="59.033269999409" lon="12.210506917063">
        <ele>122.2</ele>
        <time>2017-05-10T17:38:09Z</time>
      </trkpt>
      <trkpt lat="59.033462950747" lon="12.210277839736">
        <ele>122.4</ele>
        <time>2017-05-10T17:38:12Z</time>
      </trkpt>
      <trkpt lat="59.033609047264" lon="12.210175580556">
        <ele>121.6</ele>
        <time>2017-05-10T17:38:14Z</time>
      </trkpt>
      <trkpt lat="59.033836951125" lon="12.210103831492">
        <ele>121.2</ele>
        <time>2017-05-10T17:38:17Z</time>
      </trkpt>
      <trkpt lat="59.033911047121" lon="12.210086229502">
        <ele>121.2</ele>
        <time>2017-05-10T17:38:18Z</time>
      </trkpt>
      <trkpt lat="59.033983131461" lon="12.210068627512">
        <ele>121.2</ele>
        <time>2017-05-10T17:38:19Z</time>
      </trkpt>
      <trkpt lat="59.034350007224" lon="12.209878777477">
        <ele>121.8</ele>
        <time>2017-05-10T17:38:24Z</time>
      </trkpt>
      <trkpt lat="59.034426869247" lon="12.209822786385">
        <ele>122.2</ele>
        <time>2017-05-10T17:38:25Z</time>
      </trkpt>
      <trkpt lat="59.034962640295" lon="12.209405954498">
        <ele>122</ele>
        <time>2017-05-10T17:38:32Z</time>
      </trkpt>
      <trkpt lat="59.035494136574" lon="12.20896406073">
        <ele>121.6</ele>
        <time>2017-05-10T17:38:39Z</time>
      </trkpt>
      <trkpt lat="59.035570076588" lon="12.208894658598">
        <ele>121.4</ele>
        <time>2017-05-10T17:38:40Z</time>
      </trkpt>
      <trkpt lat="59.035645597507" lon="12.208822909534">
        <ele>121.2</ele>
        <time>2017-05-10T17:38:41Z</time>
      </trkpt>
      <trkpt lat="59.036018424419" lon="12.208494087597">
        <ele>120.8</ele>
        <time>2017-05-10T17:38:46Z</time>
      </trkpt>
      <trkpt lat="59.036096376089" lon="12.208451172269">
        <ele>121</ele>
        <time>2017-05-10T17:38:47Z</time>
      </trkpt>
      <trkpt lat="59.036631644223" lon="12.208136096648">
        <ele>122.4</ele>
        <time>2017-05-10T17:38:54Z</time>
      </trkpt>
      <trkpt lat="59.036893830055" lon="12.207756815673">
        <ele>121.6</ele>
        <time>2017-05-10T17:38:58Z</time>
      </trkpt>
      <trkpt lat="59.037015535243" lon="12.20753913773">
        <ele>121.4</ele>
        <time>2017-05-10T17:39:00Z</time>
      </trkpt>
      <trkpt lat="59.037350140691" lon="12.206881326218">
        <ele>122.8</ele>
        <time>2017-05-10T17:39:06Z</time>
      </trkpt>
      <trkpt lat="59.037393307476" lon="12.206744282153">
        <ele>123.2</ele>
        <time>2017-05-10T17:39:07Z</time>
      </trkpt>
      <trkpt lat="59.0375103188" lon="12.206312362846">
        <ele>122.6</ele>
        <time>2017-05-10T17:39:10Z</time>
      </trkpt>
      <trkpt lat="59.037658175516" lon="12.205619850268">
        <ele>123.4</ele>
        <time>2017-05-10T17:39:15Z</time>
      </trkpt>
      <trkpt lat="59.037671921832" lon="12.205472412647">
        <ele>123.2</ele>
        <time>2017-05-10T17:39:16Z</time>
      </trkpt>
      <trkpt lat="59.037694972057" lon="12.204859192843">
        <ele>124</ele>
        <time>2017-05-10T17:39:20Z</time>
      </trkpt>
      <trkpt lat="59.037704108328" lon="12.204537327883">
        <ele>123.6</ele>
        <time>2017-05-10T17:39:22Z</time>
      </trkpt>
      <trkpt lat="59.037735959548" lon="12.204051764416">
        <ele>122.6</ele>
        <time>2017-05-10T17:39:25Z</time>
      </trkpt>
      <trkpt lat="59.037771079709" lon="12.203576845962">
        <ele>123</ele>
        <time>2017-05-10T17:39:28Z</time>
      </trkpt>
      <trkpt lat="59.037841320031" lon="12.202499855631">
        <ele>123.8</ele>
        <time>2017-05-10T17:39:35Z</time>
      </trkpt>
      <trkpt lat="59.037872584518" lon="12.202057542768">
        <ele>125</ele>
        <time>2017-05-10T17:39:38Z</time>
      </trkpt>
      <trkpt lat="59.037949027446" lon="12.200982983188">
        <ele>124</ele>
        <time>2017-05-10T17:39:45Z</time>
      </trkpt>
      <trkpt lat="59.037959840097" lon="12.200824230002">
        <ele>123.8</ele>
        <time>2017-05-10T17:39:46Z</time>
      </trkpt>
      <trkpt lat="59.038074253032" lon="12.199682615222">
        <ele>123.2</ele>
        <time>2017-05-10T17:39:53Z</time>
      </trkpt>
      <trkpt lat="59.038107193899" lon="12.199514390489">
        <ele>123.2</ele>
        <time>2017-05-10T17:39:54Z</time>
      </trkpt>
      <trkpt lat="59.038149187218" lon="12.199352116905">
        <ele>123</ele>
        <time>2017-05-10T17:39:55Z</time>
      </trkpt>
      <trkpt lat="59.03825966066" lon="12.199043579166">
        <ele>121.2</ele>
        <time>2017-05-10T17:39:57Z</time>
      </trkpt>
      <trkpt lat="59.038321854358" lon="12.198902092694">
        <ele>120.8</ele>
        <time>2017-05-10T17:39:58Z</time>
      </trkpt>
      <trkpt lat="59.038458227871" lon="12.198635129179">
        <ele>120</ele>
        <time>2017-05-10T17:40:00Z</time>
      </trkpt>
      <trkpt lat="59.038685293542" lon="12.198313599495">
        <ele>119.6</ele>
        <time>2017-05-10T17:40:03Z</time>
      </trkpt>
      <trkpt lat="59.038959465491" lon="12.198050072559">
        <ele>121.2</ele>
        <time>2017-05-10T17:40:07Z</time>
      </trkpt>
      <trkpt lat="59.039086283638" lon="12.197983855549">
        <ele>122.6</ele>
        <time>2017-05-10T17:40:09Z</time>
      </trkpt>
      <trkpt lat="59.039151243363" lon="12.197966924111">
        <ele>123.6</ele>
        <time>2017-05-10T17:40:10Z</time>
      </trkpt>
      <trkpt lat="59.039216370726" lon="12.197958793668">
        <ele>124</ele>
        <time>2017-05-10T17:40:11Z</time>
      </trkpt>
      <trkpt lat="59.039346290176" lon="12.197953848347">
        <ele>125.2</ele>
        <time>2017-05-10T17:40:13Z</time>
      </trkpt>
      <trkpt lat="59.039654157363" lon="12.197949573578">
        <ele>126.2</ele>
        <time>2017-05-10T17:40:18Z</time>
      </trkpt>
      <trkpt lat="59.03971392031" lon="12.197934234701">
        <ele>126.8</ele>
        <time>2017-05-10T17:40:19Z</time>
      </trkpt>
      <trkpt lat="59.039773347981" lon="12.197908753725">
        <ele>127.4</ele>
        <time>2017-05-10T17:40:20Z</time>
      </trkpt>
      <trkpt lat="59.039939309601" lon="12.197750251996">
        <ele>127.2</ele>
        <time>2017-05-10T17:40:23Z</time>
      </trkpt>
      <trkpt lat="59.040094710027" lon="12.197381867491">
        <ele>127.8</ele>
        <time>2017-05-10T17:40:27Z</time>
      </trkpt>
      <trkpt lat="59.040120107184" lon="12.197274076257">
        <ele>128.2</ele>
        <time>2017-05-10T17:40:28Z</time>
      </trkpt>
      <trkpt lat="59.040142151581" lon="12.197161926435">
        <ele>128.4</ele>
        <time>2017-05-10T17:40:29Z</time>
      </trkpt>
      <trkpt lat="59.040198226492" lon="12.19680779116">
        <ele>129.2</ele>
        <time>2017-05-10T17:40:32Z</time>
      </trkpt>
      <trkpt lat="59.040273915049" lon="12.19619926522">
        <ele>129.4</ele>
        <time>2017-05-10T17:40:37Z</time>
      </trkpt>
      <trkpt lat="59.040274501782" lon="12.196073369082">
        <ele>130</ele>
        <time>2017-05-10T17:40:38Z</time>
      </trkpt>
      <trkpt lat="59.040220103251" lon="12.195712612106">
        <ele>130.6</ele>
        <time>2017-05-10T17:40:41Z</time>
      </trkpt>
      <trkpt lat="59.040185905099" lon="12.195608425089">
        <ele>131.2</ele>
        <time>2017-05-10T17:40:42Z</time>
      </trkpt>
      <trkpt lat="59.040148773282" lon="12.195511781782">
        <ele>131.8</ele>
        <time>2017-05-10T17:40:43Z</time>
      </trkpt>
      <trkpt lat="59.040002760584" lon="12.195250937054">
        <ele>130.8</ele>
        <time>2017-05-10T17:40:46Z</time>
      </trkpt>
      <trkpt lat="59.039948529691" lon="12.19515823324">
        <ele>130.2</ele>
        <time>2017-05-10T17:40:47Z</time>
      </trkpt>
      <trkpt lat="59.039768067384" lon="12.194852126252">
        <ele>129.2</ele>
        <time>2017-05-10T17:40:50Z</time>
      </trkpt>
      <trkpt lat="59.039649882594" lon="12.194631430825">
        <ele>128.6</ele>
        <time>2017-05-10T17:40:52Z</time>
      </trkpt>
      <trkpt lat="59.039594226778" lon="12.194510899103">
        <ele>128.2</ele>
        <time>2017-05-10T17:40:53Z</time>
      </trkpt>
      <trkpt lat="59.039401526897" lon="12.193987114172">
        <ele>127</ele>
        <time>2017-05-10T17:40:57Z</time>
      </trkpt>
      <trkpt lat="59.039195332157" lon="12.193155126778">
        <ele>127.4</ele>
        <time>2017-05-10T17:41:03Z</time>
      </trkpt>
      <trkpt lat="59.039004224837" lon="12.19221702453">
        <ele>127.2</ele>
        <time>2017-05-10T17:41:10Z</time>
      </trkpt>
      <trkpt lat="59.038941360587" lon="12.191977050733">
        <ele>128.4</ele>
        <time>2017-05-10T17:41:12Z</time>
      </trkpt>
      <trkpt lat="59.038798449192" lon="12.19150959217">
        <ele>128.8</ele>
        <time>2017-05-10T17:41:16Z</time>
      </trkpt>
      <trkpt lat="59.038538526473" lon="12.190713982222">
        <ele>129.8</ele>
        <time>2017-05-10T17:41:23Z</time>
      </trkpt>
      <trkpt lat="59.038463424649" lon="12.190499657039">
        <ele>130</ele>
        <time>2017-05-10T17:41:25Z</time>
      </trkpt>
      <trkpt lat="59.038347502972" lon="12.190211068222">
        <ele>130.8</ele>
        <time>2017-05-10T17:41:28Z</time>
      </trkpt>
      <trkpt lat="59.03821020745" lon="12.189940668128">
        <ele>130.6</ele>
        <time>2017-05-10T17:41:31Z</time>
      </trkpt>
      <trkpt lat="59.037824304774" lon="12.189302386443">
        <ele>130.8</ele>
        <time>2017-05-10T17:41:38Z</time>
      </trkpt>
      <trkpt lat="59.037515850854" lon="12.188701571851">
        <ele>130</ele>
        <time>2017-05-10T17:41:44Z</time>
      </trkpt>
      <trkpt lat="59.037398755711" lon="12.188338300305">
        <ele>130.8</ele>
        <time>2017-05-10T17:41:47Z</time>
      </trkpt>
      <trkpt lat="59.037348212854" lon="12.188079634871">
        <ele>131.8</ele>
        <time>2017-05-10T17:41:49Z</time>
      </trkpt>
      <trkpt lat="59.037301525671" lon="12.187534727552">
        <ele>132.6</ele>
        <time>2017-05-10T17:41:53Z</time>
      </trkpt>
      <trkpt lat="59.037297921454" lon="12.187403047903">
        <ele>132.8</ele>
        <time>2017-05-10T17:41:54Z</time>
      </trkpt>
      <trkpt lat="59.037294736332" lon="12.187269524236">
        <ele>132.8</ele>
        <time>2017-05-10T17:41:55Z</time>
      </trkpt>
      <trkpt lat="59.037292221762" lon="12.186573742717">
        <ele>131.6</ele>
        <time>2017-05-10T17:42:00Z</time>
      </trkpt>
      <trkpt lat="59.037298508187" lon="12.186260594933">
        <ele>130.4</ele>
        <time>2017-05-10T17:42:02Z</time>
      </trkpt>
      <trkpt lat="59.037313763245" lon="12.186104691593">
        <ele>130.2</ele>
        <time>2017-05-10T17:42:03Z</time>
      </trkpt>
      <trkpt lat="59.037379728798" lon="12.185802691736">
        <ele>129.8</ele>
        <time>2017-05-10T17:42:05Z</time>
      </trkpt>
      <trkpt lat="59.037426248343" lon="12.185658606875">
        <ele>129.4</ele>
        <time>2017-05-10T17:42:06Z</time>
      </trkpt>
      <trkpt lat="59.037551054834" lon="12.18543103829">
        <ele>128.4</ele>
        <time>2017-05-10T17:42:08Z</time>
      </trkpt>
      <trkpt lat="59.037619367319" lon="12.185343950349">
        <ele>128.4</ele>
        <time>2017-05-10T17:42:09Z</time>
      </trkpt>
      <trkpt lat="59.037759093592" lon="12.185193327606">
        <ele>128.2</ele>
        <time>2017-05-10T17:42:11Z</time>
      </trkpt>
      <trkpt lat="59.037826819344" lon="12.185119650705">
        <ele>128.4</ele>
        <time>2017-05-10T17:42:12Z</time>
      </trkpt>
      <trkpt lat="59.037952212568" lon="12.184978331871">
        <ele>129.8</ele>
        <time>2017-05-10T17:42:14Z</time>
      </trkpt>
      <trkpt lat="59.038063272743" lon="12.184827960585">
        <ele>131.6</ele>
        <time>2017-05-10T17:42:16Z</time>
      </trkpt>
      <trkpt lat="59.038115072885" lon="12.184744057766">
        <ele>132.2</ele>
        <time>2017-05-10T17:42:17Z</time>
      </trkpt>
      <trkpt lat="59.038354962863" lon="12.184263188163">
        <ele>132</ele>
        <time>2017-05-10T17:42:22Z</time>
        <extensions><gpxtpx:TrackPointExtension><gpxtpx:hr>75</gpxtpx:hr></gpxtpx:TrackPointExtension></extensions>
      </trkpt>
      <trkpt lat="59.038402739693" lon="12.184160258431">
        <ele>132.2</ele>
        <time>2017-05-10T17:42:23Z</time>
        <extensions><gpxtpx:TrackPointExtension><gpxtpx:hr>79</gpxtpx:hr></gpxtpx:TrackPointExtension></extensions>
      </trkpt>
      <trkpt lat="59.038451773808" lon="12.184057077242">
        <ele>132.2</ele>
        <time>2017-05-10T17:42:24Z</time>
        <extensions><gpxtpx:TrackPointExtension><gpxtpx:hr>82</gpxtpx:hr></gpxtpx:TrackPointExtension></extensions>
      </trkpt>
      <trkpt lat="59.03850189757" lon="12.183956745899">
        <ele>132.2</ele>
        <time>2017-05-10T17:42:25Z</time>
        <extensions><gpxtpx:TrackPointExtension><gpxtpx:hr>85</gpxtpx:hr></gpxtpx:TrackPointExtension></extensions>
      </trkpt>
      <trkpt lat="59.038552691884" lon="12.183860856963">
        <ele>132</ele>
        <time>2017-05-10T17:42:26Z</time>
        <extensions><gpxtpx:TrackPointExtension><gpxtpx:hr>85</gpxtpx:hr></gpxtpx:TrackPointExtension></extensions>
      </trkpt>
      <trkpt lat="59.038653945236" lon="12.183661032467">
        <ele>131.6</ele>
        <time>2017-05-10T17:42:28Z</time>
        <extensions><gpxtpx:TrackPointExtension><gpxtpx:hr>88</gpxtpx:hr></gpxtpx:TrackPointExtension></extensions>
      </trkpt>
      <trkpt lat="59.038762155565" lon="12.18345710084">
        <ele>130.6</ele>
        <time>2017-05-10T17:42:30Z</time>
        <extensions><gpxtpx:TrackPointExtension><gpxtpx:hr>90</gpxtpx:hr></gpxtpx:TrackPointExtension></extensions>
      </trkpt>
      <trkpt lat="59.038874137749" lon="12.183237159784">
        <ele>130.6</ele>
        <time>2017-05-10T17:42:32Z</time>
        <extensions><gpxtpx:TrackPointExtension><gpxtpx:hr>93</gpxtpx:hr></gpxtpx:TrackPointExtension></extensions>
      </trkpt>
      <trkpt lat="59.038992993091" lon="12.183023924248">
        <ele>130.2</ele>
        <time>2017-05-10T17:42:34Z</time>
        <extensions><gpxtpx:TrackPointExtension><gpxtpx:hr>97</gpxtpx:hr></gpxtpx:TrackPointExtension></extensions>
      </trkpt>
      <trkpt lat="59.039116039383" lon="12.182804486106">
        <ele>130</ele>
        <time>2017-05-10T17:42:36Z</time>
        <extensions><gpxtpx:TrackPointExtension><gpxtpx:hr>101</gpxtpx:hr></gpxtpx:TrackPointExtension></extensions>
      </trkpt>
      <trkpt lat="59.039176137606" lon="12.182694180302">
        <ele>129.2</ele>
        <time>2017-05-10T17:42:37Z</time>
        <extensions><gpxtpx:TrackPointExtension><gpxtpx:hr>103</gpxtpx:hr></gpxtpx:TrackPointExtension></extensions>
      </trkpt>
      <trkpt lat="59.039294238577" lon="12.182464097147">
        <ele>128.6</ele>
        <time>2017-05-10T17:42:39Z</time>
        <extensions><gpxtpx:TrackPointExtension><gpxtpx:hr>112</gpxtpx:hr></gpxtpx:TrackPointExtension></extensions>
      </trkpt>
      <trkpt lat="59.039488195743" lon="12.182108872225">
        <ele>127.8</ele>
        <time>2017-05-10T17:42:42Z</time>
        <extensions><gpxtpx:TrackPointExtension><gpxtpx:hr>113</gpxtpx:hr></gpxtpx:TrackPointExtension></extensions>
      </trkpt>
      <trkpt lat="59.039558352246" lon="12.181979623327">
        <ele>127.4</ele>
        <time>2017-05-10T17:42:43Z</time>
        <extensions><gpxtpx:TrackPointExtension><gpxtpx:hr>113</gpxtpx:hr></gpxtpx:TrackPointExtension></extensions>
      </trkpt>
      <trkpt lat="59.039701766555" lon="12.181732776372">
        <ele>126.4</ele>
        <time>2017-05-10T17:42:45Z</time>
        <extensions><gpxtpx:TrackPointExtension><gpxtpx:hr>113</gpxtpx:hr></gpxtpx:TrackPointExtension></extensions>
      </trkpt>
      <trkpt lat="59.039855658239" lon="12.181483917761">
        <ele>124.8</ele>
        <time>2017-05-10T17:42:47Z</time>
        <extensions><gpxtpx:TrackPointExtension><gpxtpx:hr>113</gpxtpx:hr></gpxtpx:TrackPointExtension></extensions>
      </trkpt>
      <trkpt lat="59.040019608203" lon="12.18122416268">
        <ele>123.4</ele>
        <time>2017-05-10T17:42:49Z</time>
        <extensions><gpxtpx:TrackPointExtension><gpxtpx:hr>114</gpxtpx:hr></gpxtpx:TrackPointExtension></extensions>
      </trkpt>
      <trkpt lat="59.040200573424" lon="12.181014698999">
        <ele>121.6</ele>
        <time>2017-05-10T17:42:51Z</time>
        <extensions><gpxtpx:TrackPointExtension><gpxtpx:hr>116</gpxtpx:hr></gpxtpx:TrackPointExtension></extensions>
      </trkpt>
      <trkpt lat="59.040388244165" lon="12.180839852565">
        <ele>120.8</ele>
        <time>2017-05-10T17:42:53Z</time>
        <extensions><gpxtpx:TrackPointExtension><gpxtpx:hr>117</gpxtpx:hr></gpxtpx:TrackPointExtension></extensions>
      </trkpt>
      <trkpt lat="59.040573819431" lon="12.180674226221">
        <ele>120.6</ele>
        <time>2017-05-10T17:42:55Z</time>
        <extensions><gpxtpx:TrackPointExtension><gpxtpx:hr>120</gpxtpx:hr></gpxtpx:TrackPointExtension></extensions>
      </trkpt>
      <trkpt lat="59.040747743856" lon="12.180502229633">
        <ele>120.6</ele>
        <time>2017-05-10T17:42:57Z</time>
        <extensions><gpxtpx:TrackPointExtension><gpxtpx:hr>120</gpxtpx:hr></gpxtpx:TrackPointExtension></extensions>
      </trkpt>
      <trkpt lat="59.040904736843" lon="12.180305757897">
        <ele>120.4</ele>
        <time>2017-05-10T17:42:59Z</time>
        <extensions><gpxtpx:TrackPointExtension><gpxtpx:hr>121</gpxtpx:hr></gpxtpx:TrackPointExtension></extensions>
      </trkpt>
      <trkpt lat="59.040972127319" lon="12.180195032998">
        <ele>120.6</ele>
        <time>2017-05-10T17:43:00Z</time>
        <extensions><gpxtpx:TrackPointExtension><gpxtpx:hr>121</gpxtpx:hr></gpxtpx:TrackPointExtension></extensions>
      </trkpt>
      <trkpt lat="59.041032644637" lon="12.180080620063">
        <ele>121.8</ele>
        <time>2017-05-10T17:43:01Z</time>
        <extensions><gpxtpx:TrackPointExtension><gpxtpx:hr>121</gpxtpx:hr></gpxtpx:TrackPointExtension></extensions>
      </trkpt>
      <trkpt lat="59.041135406731" lon="12.179825558846">
        <ele>122.8</ele>
        <time>2017-05-10T17:43:03Z</time>
        <extensions><gpxtpx:TrackPointExtension><gpxtpx:hr>123</gpxtpx:hr></gpxtpx:TrackPointExtension></extensions>
      </trkpt>
      <trkpt lat="59.04117907643" lon="12.179689604428">
        <ele>123.2</ele>
        <time>2017-05-10T17:43:04Z</time>
        <extensions><gpxtpx:TrackPointExtension><gpxtpx:hr>123</gpxtpx:hr></gpxtpx:TrackPointExtension></extensions>
      </trkpt>
      <trkpt lat="59.041250574037" lon="12.179398081946">
        <ele>123.6</ele>
        <time>2017-05-10T17:43:06Z</time>
        <extensions><gpxtpx:TrackPointExtension><gpxtpx:hr>124</gpxtpx:hr></gpxtpx:TrackPointExtension></extensions>
      </trkpt>
      <trkpt lat="59.041280581239" lon="12.179245363728">
        <ele>123.6</ele>
        <time>2017-05-10T17:43:07Z</time>
        <extensions><gpxtpx:TrackPointExtension><gpxtpx:hr>125</gpxtpx:hr></gpxtpx:TrackPointExtension></extensions>
      </trkpt>
      <trkpt lat="59.041321317273" lon="12.17892836027">
        <ele>123.6</ele>
        <time>2017-05-10T17:43:09Z</time>
        <extensions><gpxtpx:TrackPointExtension><gpxtpx:hr>126</gpxtpx:hr></gpxtpx:TrackPointExtension></extensions>
      </trkpt>
      <trkpt lat="59.041332046105" lon="12.178599454514">
        <ele>123</ele>
        <time>2017-05-10T17:43:11Z</time>
        <extensions><gpxtpx:TrackPointExtension><gpxtpx:hr>127</gpxtpx:hr></gpxtpx:TrackPointExtension></extensions>
      </trkpt>
      <trkpt lat="59.041276809384" lon="12.177814824855">
        <ele>123</ele>
        <time>2017-05-10T17:43:16Z</time>
        <extensions><gpxtpx:TrackPointExtension><gpxtpx:hr>128</gpxtpx:hr></gpxtpx:TrackPointExtension></extensions>
      </trkpt>
      <trkpt lat="59.041251747503" lon="12.177662944827">
        <ele>123.6</ele>
        <time>2017-05-10T17:43:17Z</time>
        <extensions><gpxtpx:TrackPointExtension><gpxtpx:hr>128</gpxtpx:hr></gpxtpx:TrackPointExtension></extensions>
      </trkpt>
      <trkpt lat="59.041197348972" lon="12.1773751942">
        <ele>124.4</ele>
        <time>2017-05-10T17:43:19Z</time>
        <extensions><gpxtpx:TrackPointExtension><gpxtpx:hr>128</gpxtpx:hr></gpxtpx:TrackPointExtension></extensions>
      </trkpt>
      <trkpt lat="59.041137921301" lon="12.177102866269">
        <ele>124.8</ele>
        <time>2017-05-10T17:43:21Z</time>
        <extensions><gpxtpx:TrackPointExtension><gpxtpx:hr>129</gpxtpx:hr></gpxtpx:TrackPointExtension></extensions>
      </trkpt>
      <trkpt lat="59.041071871929" lon="12.17685048726">
        <ele>125.4</ele>
        <time>2017-05-10T17:43:23Z</time>
        <extensions><gpxtpx:TrackPointExtension><gpxtpx:hr>129</gpxtpx:hr></gpxtpx:TrackPointExtension></extensions>
      </trkpt>
      <trkpt lat="59.040995931915" lon="12.176617386621">
        <ele>126.8</ele>
        <time>2017-05-10T17:43:25Z</time>
        <extensions><gpxtpx:TrackPointExtension><gpxtpx:hr>130</gpxtpx:hr></gpxtpx:TrackPointExtension></extensions>
      </trkpt>
      <trkpt lat="59.040950669655" lon="12.176511690862">
        <ele>126.8</ele>
        <time>2017-05-10T17:43:26Z</time>
        <extensions><gpxtpx:TrackPointExtension><gpxtpx:hr>130</gpxtpx:hr></gpxtpx:TrackPointExtension></extensions>
      </trkpt>
      <trkpt lat="59.0407876417" lon="12.176071557293">
        <ele>126.6</ele>
        <time>2017-05-10T17:43:31Z</time>
        <extensions><gpxtpx:TrackPointExtension><gpxtpx:hr>130</gpxtpx:hr></gpxtpx:TrackPointExtension></extensions>
      </trkpt>
      <trkpt lat="59.040771045538" lon="12.176049093801">
        <ele>126.6</ele>
        <time>2017-05-10T17:43:32Z</time>
        <extensions><gpxtpx:TrackPointExtension><gpxtpx:hr>129</gpxtpx:hr></gpxtpx:TrackPointExtension></extensions>
      </trkpt>
      <trkpt lat="59.040759897611" lon="12.176107683282">
        <ele>126.6</ele>
        <time>2017-05-10T17:43:34Z</time>
        <extensions><gpxtpx:TrackPointExtension><gpxtpx:hr>129</gpxtpx:hr></gpxtpx:TrackPointExtension></extensions>
      </trkpt>
      <trkpt lat="59.040799543998" lon="12.176259814767">
        <ele>126.6</ele>
        <time>2017-05-10T17:43:38Z</time>
        <extensions><gpxtpx:TrackPointExtension><gpxtpx:hr>129</gpxtpx:hr></gpxtpx:TrackPointExtension></extensions>
      </trkpt>
      <trkpt lat="59.04089912097" lon="12.176519150753">
        <ele>127</ele>
        <time>2017-05-10T17:43:43Z</time>
        <extensions><gpxtpx:TrackPointExtension><gpxtpx:hr>129</gpxtpx:hr></gpxtpx:TrackPointExtension></extensions>
      </trkpt>
      <trkpt lat="59.041028621325" lon="12.176900862479">
        <ele>125.8</ele>
        <time>2017-05-10T17:43:47Z</time>
        <extensions><gpxtpx:TrackPointExtension><gpxtpx:hr>131</gpxtpx:hr></gpxtpx:TrackPointExtension></extensions>
      </trkpt>
      <trkpt lat="59.04106089164" lon="12.177014604862">
        <ele>125</ele>
        <time>2017-05-10T17:43:48Z</time>
        <extensions><gpxtpx:TrackPointExtension><gpxtpx:hr>131</gpxtpx:hr></gpxtpx:TrackPointExtension></extensions>
      </trkpt>
      <trkpt lat="59.041181339543" lon="12.177535456128">
        <ele>124</ele>
        <time>2017-05-10T17:43:52Z</time>
        <extensions><gpxtpx:TrackPointExtension><gpxtpx:hr>132</gpxtpx:hr></gpxtpx:TrackPointExtension></extensions>
      </trkpt>
      <trkpt lat="59.041204641225" lon="12.177679708627">
        <ele>124</ele>
        <time>2017-05-10T17:43:53Z</time>
        <extensions><gpxtpx:TrackPointExtension><gpxtpx:hr>132</gpxtpx:hr></gpxtpx:TrackPointExtension></extensions>
      </trkpt>
      <trkpt lat="59.041275384461" lon="12.178278846839">
        <ele>123.6</ele>
        <time>2017-05-10T17:43:57Z</time>
        <extensions><gpxtpx:TrackPointExtension><gpxtpx:hr>133</gpxtpx:hr></gpxtpx:TrackPointExtension></extensions>
      </trkpt>
      <trkpt lat="59.041261386688" lon="12.179073115683">
        <ele>123.2</ele>
        <time>2017-05-10T17:44:02Z</time>
        <extensions><gpxtpx:TrackPointExtension><gpxtpx:hr>133</gpxtpx:hr></gpxtpx:TrackPointExtension></extensions>
      </trkpt>
      <trkpt lat="59.041216292066" lon="12.179365141079">
        <ele>122.8</ele>
        <time>2017-05-10T17:44:04Z</time>
        <extensions><gpxtpx:TrackPointExtension><gpxtpx:hr>133</gpxtpx:hr></gpxtpx:TrackPointExtension></extensions>
      </trkpt>
      <trkpt lat="59.041160552431" lon="12.17962824892">
        <ele>122.2</ele>
        <time>2017-05-10T17:44:06Z</time>
        <extensions><gpxtpx:TrackPointExtension><gpxtpx:hr>134</gpxtpx:hr></gpxtpx:TrackPointExtension></extensions>
      </trkpt>
      <trkpt lat="59.041124091166" lon="12.179747439538">
        <ele>122.2</ele>
        <time>2017-05-10T17:44:07Z</time>
        <extensions><gpxtpx:TrackPointExtension><gpxtpx:hr>134</gpxtpx:hr></gpxtpx:TrackPointExtension></extensions>
      </trkpt>
      <trkpt lat="59.04099132187" lon="12.180081374434">
        <ele>122.4</ele>
        <time>2017-05-10T17:44:10Z</time>
        <extensions><gpxtpx:TrackPointExtension><gpxtpx:hr>135</gpxtpx:hr></gpxtpx:TrackPointExtension></extensions>
      </trkpt>
      <trkpt lat="59.040814044685" lon="12.180378680427">
        <ele>121.6</ele>
        <time>2017-05-10T17:44:13Z</time>
        <extensions><gpxtpx:TrackPointExtension><gpxtpx:hr>134</gpxtpx:hr></gpxtpx:TrackPointExtension></extensions>
      </trkpt>
      <trkpt lat="59.040751683349" lon="12.180461577418">
        <ele>121.2</ele>
        <time>2017-05-10T17:44:14Z</time>
        <extensions><gpxtpx:TrackPointExtension><gpxtpx:hr>134</gpxtpx:hr></gpxtpx:TrackPointExtension></extensions>
      </trkpt>
      <trkpt lat="59.040684292873" lon="12.180531147188">
        <ele>121.2</ele>
        <time>2017-05-10T17:44:15Z</time>
        <extensions><gpxtpx:TrackPointExtension><gpxtpx:hr>135</gpxtpx:hr></gpxtpx:TrackPointExtension></extensions>
      </trkpt>
      <trkpt lat="59.040279614741" lon="12.180911853086">
        <ele>122.4</ele>
        <time>2017-05-10T17:44:21Z</time>
        <extensions><gpxtpx:TrackPointExtension><gpxtpx:hr>135</gpxtpx:hr></gpxtpx:TrackPointExtension></extensions>
      </trkpt>
      <trkpt lat="59.040215577025" lon="12.180973292413">
        <ele>122.6</ele>
        <time>2017-05-10T17:44:22Z</time>
        <extensions><gpxtpx:TrackPointExtension><gpxtpx:hr>134</gpxtpx:hr></gpxtpx:TrackPointExtension></extensions>
      </trkpt>
      <trkpt lat="59.040037126374" lon="12.181178648963">
        <ele>124</ele>
        <time>2017-05-10T17:44:25Z</time>
        <extensions><gpxtpx:TrackPointExtension><gpxtpx:hr>134</gpxtpx:hr></gpxtpx:TrackPointExtension></extensions>
      </trkpt>
      <trkpt lat="59.039929921873" lon="12.181331367181">
        <ele>124</ele>
        <time>2017-05-10T17:44:27Z</time>
        <extensions><gpxtpx:TrackPointExtension><gpxtpx:hr>134</gpxtpx:hr></gpxtpx:TrackPointExtension></extensions>
      </trkpt>
      <trkpt lat="59.039742334951" lon="12.181622889663">
        <ele>125.2</ele>
        <time>2017-05-10T17:44:31Z</time>
        <extensions><gpxtpx:TrackPointExtension><gpxtpx:hr>135</gpxtpx:hr></gpxtpx:TrackPointExtension></extensions>
      </trkpt>
      <trkpt lat="59.039698246157" lon="12.181696650383">
        <ele>125.6</ele>
        <time>2017-05-10T17:44:32Z</time>
        <extensions><gpxtpx:TrackPointExtension><gpxtpx:hr>136</gpxtpx:hr></gpxtpx:TrackPointExtension></extensions>
      </trkpt>
      <trkpt lat="59.039612331682" lon="12.181848278954">
        <ele>126.2</ele>
        <time>2017-05-10T17:44:34Z</time>
        <extensions><gpxtpx:TrackPointExtension><gpxtpx:hr>138</gpxtpx:hr></gpxtpx:TrackPointExtension></extensions>
      </trkpt>
      <trkpt lat="59.039490542675" lon="12.182065789259">
        <ele>127.4</ele>
        <time>2017-05-10T17:44:37Z</time>
        <extensions><gpxtpx:TrackPointExtension><gpxtpx:hr>140</gpxtpx:hr></gpxtpx:TrackPointExtension></extensions>
      </trkpt>
      <trkpt lat="59.039406975132" lon="12.182205096437">
        <ele>128.4</ele>
        <time>2017-05-10T17:44:39Z</time>
        <extensions><gpxtpx:TrackPointExtension><gpxtpx:hr>142</gpxtpx:hr></gpxtpx:TrackPointExtension></extensions>
      </trkpt>
      <trkpt lat="59.039368334573" lon="12.182276342587">
        <ele>128.6</ele>
        <time>2017-05-10T17:44:40Z</time>
        <extensions><gpxtpx:TrackPointExtension><gpxtpx:hr>142</gpxtpx:hr></gpxtpx:TrackPointExtension></extensions>
      </trkpt>
      <trkpt lat="59.039249395412" lon="12.182491673598">
        <ele>129.8</ele>
        <time>2017-05-10T17:44:43Z</time>
        <extensions><gpxtpx:TrackPointExtension><gpxtpx:hr>144</gpxtpx:hr></gpxtpx:TrackPointExtension></extensions>
      </trkpt>
      <trkpt lat="59.039129450423" lon="12.182710022093">
        <ele>130.8</ele>
        <time>2017-05-10T17:44:46Z</time>
        <extensions><gpxtpx:TrackPointExtension><gpxtpx:hr>146</gpxtpx:hr></gpxtpx:TrackPointExtension></extensions>
      </trkpt>
      <trkpt lat="59.038825271272" lon="12.183276135619">
        <ele>131.4</ele>
        <time>2017-05-10T17:44:53Z</time>
        <extensions><gpxtpx:TrackPointExtension><gpxtpx:hr>148</gpxtpx:hr></gpxtpx:TrackPointExtension></extensions>
      </trkpt>
      <trkpt lat="59.038737512779" lon="12.183439666488">
        <ele>131.8</ele>
        <time>2017-05-10T17:44:55Z</time>
        <extensions><gpxtpx:TrackPointExtension><gpxtpx:hr>149</gpxtpx:hr></gpxtpx:TrackPointExtension></extensions>
      </trkpt>
      <trkpt lat="59.038617064876" lon="12.183670168738">
        <ele>131.8</ele>
        <time>2017-05-10T17:44:58Z</time>
        <extensions><gpxtpx:TrackPointExtension><gpxtpx:hr>150</gpxtpx:hr></gpxtpx:TrackPointExtension></extensions>
      </trkpt>
      <trkpt lat="59.038575239195" lon="12.183749964426">
        <ele>132</ele>
        <time>2017-05-10T17:44:59Z</time>
        <extensions><gpxtpx:TrackPointExtension><gpxtpx:hr>150</gpxtpx:hr></gpxtpx:TrackPointExtension></extensions>
      </trkpt>
      <trkpt lat="59.038230743105" lon="12.184458989347">
        <ele>132.4</ele>
        <time>2017-05-10T17:45:07Z</time>
        <extensions><gpxtpx:TrackPointExtension><gpxtpx:hr>149</gpxtpx:hr></gpxtpx:TrackPointExtension></extensions>
      </trkpt>
      <trkpt lat="59.037910554525" lon="12.184968105953">
        <ele>131.8</ele>
        <time>2017-05-10T17:45:13Z</time>
        <extensions><gpxtpx:TrackPointExtension><gpxtpx:hr>148</gpxtpx:hr></gpxtpx:TrackPointExtension></extensions>
      </trkpt>
      <trkpt lat="59.037654152204" lon="12.185260969539">
        <ele>130.6</ele>
        <time>2017-05-10T17:45:17Z</time>
        <extensions><gpxtpx:TrackPointExtension><gpxtpx:hr>147</gpxtpx:hr></gpxtpx:TrackPointExtension></extensions>
      </trkpt>
      <trkpt lat="59.037474108992" lon="12.185503625544">
        <ele>130.4</ele>
        <time>2017-05-10T17:45:20Z</time>
        <extensions><gpxtpx:TrackPointExtension><gpxtpx:hr>146</gpxtpx:hr></gpxtpx:TrackPointExtension></extensions>
      </trkpt>
      <trkpt lat="59.037421135384" lon="12.185602951059">
        <ele>130.2</ele>
        <time>2017-05-10T17:45:21Z</time>
        <extensions><gpxtpx:TrackPointExtension><gpxtpx:hr>146</gpxtpx:hr></gpxtpx:TrackPointExtension></extensions>
      </trkpt>
      <trkpt lat="59.037317032186" lon="12.185929677521">
        <ele>129.8</ele>
        <time>2017-05-10T17:45:24Z</time>
        <extensions><gpxtpx:TrackPointExtension><gpxtpx:hr>145</gpxtpx:hr></gpxtpx:TrackPointExtension></extensions>
      </trkpt>
      <trkpt lat="59.037280235645" lon="12.186413564608">
        <ele>130.6</ele>
        <time>2017-05-10T17:45:28Z</time>
        <extensions><gpxtpx:TrackPointExtension><gpxtpx:hr>143</gpxtpx:hr></gpxtpx:TrackPointExtension></extensions>
      </trkpt>
      <trkpt lat="59.037275793238" lon="12.18698001341">
        <ele>131.6</ele>
        <time>2017-05-10T17:45:33Z</time>
        <extensions><gpxtpx:TrackPointExtension><gpxtpx:hr>141</gpxtpx:hr></gpxtpx:TrackPointExtension></extensions>
      </trkpt>
      <trkpt lat="59.037275457962" lon="12.18708562535">
        <ele>132</ele>
        <time>2017-05-10T17:45:34Z</time>
        <extensions><gpxtpx:TrackPointExtension><gpxtpx:hr>141</gpxtpx:hr></gpxtpx:TrackPointExtension></extensions>
      </trkpt>
      <trkpt lat="59.037296747988" lon="12.187780065765">
        <ele>132.2</ele>
        <time>2017-05-10T17:45:40Z</time>
        <extensions><gpxtpx:TrackPointExtension><gpxtpx:hr>142</gpxtpx:hr></gpxtpx:TrackPointExtension></extensions>
      </trkpt>
      <trkpt lat="59.037398420435" lon="12.188439469838">
        <ele>131.2</ele>
        <time>2017-05-10T17:45:45Z</time>
        <extensions><gpxtpx:TrackPointExtension><gpxtpx:hr>140</gpxtpx:hr></gpxtpx:TrackPointExtension></extensions>
      </trkpt>
      <trkpt lat="59.037562454218" lon="12.188878681398">
        <ele>130.4</ele>
        <time>2017-05-10T17:45:49Z</time>
        <extensions><gpxtpx:TrackPointExtension><gpxtpx:hr>138</gpxtpx:hr></gpxtpx:TrackPointExtension></extensions>
      </trkpt>
      <trkpt lat="59.037934778216" lon="12.189564488456">
        <ele>130.4</ele>
        <time>2017-05-10T17:45:56Z</time>
        <extensions><gpxtpx:TrackPointExtension><gpxtpx:hr>136</gpxtpx:hr></gpxtpx:TrackPointExtension></extensions>
      </trkpt>
      <trkpt lat="59.038242142489" lon="12.19009556564">
        <ele>130.8</ele>
        <time>2017-05-10T17:46:02Z</time>
        <extensions><gpxtpx:TrackPointExtension><gpxtpx:hr>133</gpxtpx:hr></gpxtpx:TrackPointExtension></extensions>
      </trkpt>
      <trkpt lat="59.038465101029" lon="12.190623457702">
        <ele>130.2</ele>
        <time>2017-05-10T17:46:07Z</time>
        <extensions><gpxtpx:TrackPointExtension><gpxtpx:hr>132</gpxtpx:hr></gpxtpx:TrackPointExtension></extensions>
      </trkpt>
      <trkpt lat="59.038663919697" lon="12.191238940619">
        <ele>129.2</ele>
        <time>2017-05-10T17:46:12Z</time>
        <extensions><gpxtpx:TrackPointExtension><gpxtpx:hr>131</gpxtpx:hr></gpxtpx:TrackPointExtension></extensions>
      </trkpt>
      <trkpt lat="59.038746146136" lon="12.19149282837">
        <ele>128.4</ele>
        <time>2017-05-10T17:46:14Z</time>
        <extensions><gpxtpx:TrackPointExtension><gpxtpx:hr>131</gpxtpx:hr></gpxtpx:TrackPointExtension></extensions>
      </trkpt>
      <trkpt lat="59.038785876342" lon="12.191619730336">
        <ele>128.2</ele>
        <time>2017-05-10T17:46:15Z</time>
        <extensions><gpxtpx:TrackPointExtension><gpxtpx:hr>131</gpxtpx:hr></gpxtpx:TrackPointExtension></extensions>
      </trkpt>
      <trkpt lat="59.039003721923" lon="12.192422883994">
        <ele>127.6</ele>
        <time>2017-05-10T17:46:21Z</time>
        <extensions><gpxtpx:TrackPointExtension><gpxtpx:hr>128</gpxtpx:hr></gpxtpx:TrackPointExtension></extensions>
      </trkpt>
      <trkpt lat="59.039032890935" lon="12.192564789561">
        <ele>127</ele>
        <time>2017-05-10T17:46:22Z</time>
        <extensions><gpxtpx:TrackPointExtension><gpxtpx:hr>128</gpxtpx:hr></gpxtpx:TrackPointExtension></extensions>
      </trkpt>
      <trkpt lat="59.039254089276" lon="12.193557541797">
        <ele>126.8</ele>
        <time>2017-05-10T17:46:29Z</time>
        <extensions><gpxtpx:TrackPointExtension><gpxtpx:hr>128</gpxtpx:hr></gpxtpx:TrackPointExtension></extensions>
      </trkpt>
      <trkpt lat="59.039292226921" lon="12.193687712704">
        <ele>126.6</ele>
        <time>2017-05-10T17:46:30Z</time>
        <extensions><gpxtpx:TrackPointExtension><gpxtpx:hr>128</gpxtpx:hr></gpxtpx:TrackPointExtension></extensions>
      </trkpt>
      <trkpt lat="59.039436647058" lon="12.194208647789">
        <ele>126.6</ele>
        <time>2017-05-10T17:46:34Z</time>
        <extensions><gpxtpx:TrackPointExtension><gpxtpx:hr>127</gpxtpx:hr></gpxtpx:TrackPointExtension></extensions>
      </trkpt>
      <trkpt lat="59.039478975653" lon="12.194329933882">
        <ele>126.6</ele>
        <time>2017-05-10T17:46:35Z</time>
        <extensions><gpxtpx:TrackPointExtension><gpxtpx:hr>126</gpxtpx:hr></gpxtpx:TrackPointExtension></extensions>
      </trkpt>
      <trkpt lat="59.039766223366" lon="12.19495455307">
        <ele>128</ele>
        <time>2017-05-10T17:46:41Z</time>
        <extensions><gpxtpx:TrackPointExtension><gpxtpx:hr>128</gpxtpx:hr></gpxtpx:TrackPointExtension></extensions>
      </trkpt>
      <trkpt lat="59.039814586929" lon="12.195046167237">
        <ele>128.2</ele>
        <time>2017-05-10T17:46:42Z</time>
        <extensions><gpxtpx:TrackPointExtension><gpxtpx:hr>128</gpxtpx:hr></gpxtpx:TrackPointExtension></extensions>
      </trkpt>
      <trkpt lat="59.04001063957" lon="12.195362164867">
        <ele>129.2</ele>
        <time>2017-05-10T17:46:46Z</time>
        <extensions><gpxtpx:TrackPointExtension><gpxtpx:hr>132</gpxtpx:hr></gpxtpx:TrackPointExtension></extensions>
      </trkpt>
      <trkpt lat="59.040104181574" lon="12.19550943485">
        <ele>130.2</ele>
        <time>2017-05-10T17:46:48Z</time>
        <extensions><gpxtpx:TrackPointExtension><gpxtpx:hr>132</gpxtpx:hr></gpxtpx:TrackPointExtension></extensions>
      </trkpt>
      <trkpt lat="59.040146761626" lon="12.195598031533">
        <ele>130.2</ele>
        <time>2017-05-10T17:46:49Z</time>
        <extensions><gpxtpx:TrackPointExtension><gpxtpx:hr>133</gpxtpx:hr></gpxtpx:TrackPointExtension></extensions>
      </trkpt>
      <trkpt lat="59.040229323341" lon="12.195944036365">
        <ele>130</ele>
        <time>2017-05-10T17:46:52Z</time>
        <extensions><gpxtpx:TrackPointExtension><gpxtpx:hr>134</gpxtpx:hr></gpxtpx:TrackPointExtension></extensions>
      </trkpt>
      <trkpt lat="59.040213984464" lon="12.196461953966">
        <ele>129</ele>
        <time>2017-05-10T17:46:56Z</time>
        <extensions><gpxtpx:TrackPointExtension><gpxtpx:hr>134</gpxtpx:hr></gpxtpx:TrackPointExtension></extensions>
      </trkpt>
      <trkpt lat="59.040195544284" lon="12.196592041054">
        <ele>129</ele>
        <time>2017-05-10T17:46:57Z</time>
        <extensions><gpxtpx:TrackPointExtension><gpxtpx:hr>134</gpxtpx:hr></gpxtpx:TrackPointExtension></extensions>
      </trkpt>
      <trkpt lat="59.040112479655" lon="12.197120603668">
        <ele>127.8</ele>
        <time>2017-05-10T17:47:01Z</time>
        <extensions><gpxtpx:TrackPointExtension><gpxtpx:hr>134</gpxtpx:hr></gpxtpx:TrackPointExtension></extensions>
      </trkpt>
      <trkpt lat="59.040051207966" lon="12.197372982677">
        <ele>127</ele>
        <time>2017-05-10T17:47:03Z</time>
        <extensions><gpxtpx:TrackPointExtension><gpxtpx:hr>133</gpxtpx:hr></gpxtpx:TrackPointExtension></extensions>
      </trkpt>
      <trkpt lat="59.040010891027" lon="12.197497118616">
        <ele>126.6</ele>
        <time>2017-05-10T17:47:04Z</time>
        <extensions><gpxtpx:TrackPointExtension><gpxtpx:hr>134</gpxtpx:hr></gpxtpx:TrackPointExtension></extensions>
      </trkpt>
      <trkpt lat="59.039957246867" lon="12.19760155709">
        <ele>126</ele>
        <time>2017-05-10T17:47:05Z</time>
        <extensions><gpxtpx:TrackPointExtension><gpxtpx:hr>133</gpxtpx:hr></gpxtpx:TrackPointExtension></extensions>
      </trkpt>
      <trkpt lat="59.039827327417" lon="12.197772966945">
        <ele>125.8</ele>
        <time>2017-05-10T17:47:07Z</time>
        <extensions><gpxtpx:TrackPointExtension><gpxtpx:hr>133</gpxtpx:hr></gpxtpx:TrackPointExtension></extensions>
      </trkpt>
      <trkpt lat="59.039597579538" lon="12.197884781491">
        <ele>126.2</ele>
        <time>2017-05-10T17:47:10Z</time>
        <extensions><gpxtpx:TrackPointExtension><gpxtpx:hr>133</gpxtpx:hr></gpxtpx:TrackPointExtension></extensions>
      </trkpt>
      <trkpt lat="59.039439999818" lon="12.19788737988">
        <ele>126</ele>
        <time>2017-05-10T17:47:12Z</time>
        <extensions><gpxtpx:TrackPointExtension><gpxtpx:hr>133</gpxtpx:hr></gpxtpx:TrackPointExtension></extensions>
      </trkpt>
      <trkpt lat="59.039196673261" lon="12.197901964386">
        <ele>125.6</ele>
        <time>2017-05-10T17:47:15Z</time>
        <extensions><gpxtpx:TrackPointExtension><gpxtpx:hr>132</gpxtpx:hr></gpxtpx:TrackPointExtension></extensions>
      </trkpt>
      <trkpt lat="59.039032052745" lon="12.197961643514">
        <ele>124.6</ele>
        <time>2017-05-10T17:47:17Z</time>
        <extensions><gpxtpx:TrackPointExtension><gpxtpx:hr>131</gpxtpx:hr></gpxtpx:TrackPointExtension></extensions>
      </trkpt>
      <trkpt lat="59.038948149926" lon="12.198016544959">
        <ele>124</ele>
        <time>2017-05-10T17:47:18Z</time>
        <extensions><gpxtpx:TrackPointExtension><gpxtpx:hr>130</gpxtpx:hr></gpxtpx:TrackPointExtension></extensions>
      </trkpt>
      <trkpt lat="59.038867516048" lon="12.19808938367">
        <ele>123.2</ele>
        <time>2017-05-10T17:47:19Z</time>
        <extensions><gpxtpx:TrackPointExtension><gpxtpx:hr>131</gpxtpx:hr></gpxtpx:TrackPointExtension></extensions>
      </trkpt>
      <trkpt lat="59.038706583568" lon="12.198247550123">
        <ele>121.8</ele>
        <time>2017-05-10T17:47:21Z</time>
        <extensions><gpxtpx:TrackPointExtension><gpxtpx:hr>130</gpxtpx:hr></gpxtpx:TrackPointExtension></extensions>
      </trkpt>
      <trkpt lat="59.038549925857" lon="12.198447123162">
        <ele>120.2</ele>
        <time>2017-05-10T17:47:23Z</time>
        <extensions><gpxtpx:TrackPointExtension><gpxtpx:hr>129</gpxtpx:hr></gpxtpx:TrackPointExtension></extensions>
      </trkpt>
      <trkpt lat="59.038475829861" lon="12.198559356803">
        <ele>119.2</ele>
        <time>2017-05-10T17:47:24Z</time>
        <extensions><gpxtpx:TrackPointExtension><gpxtpx:hr>129</gpxtpx:hr></gpxtpx:TrackPointExtension></extensions>
      </trkpt>
      <trkpt lat="59.038406595367" lon="12.198682906009">
        <ele>118.6</ele>
        <time>2017-05-10T17:47:25Z</time>
        <extensions><gpxtpx:TrackPointExtension><gpxtpx:hr>129</gpxtpx:hr></gpxtpx:TrackPointExtension></extensions>
      </trkpt>
      <trkpt lat="59.038227725621" lon="12.199061767889">
        <ele>119</ele>
        <time>2017-05-10T17:47:28Z</time>
        <extensions><gpxtpx:TrackPointExtension><gpxtpx:hr>129</gpxtpx:hr></gpxtpx:TrackPointExtension></extensions>
      </trkpt>
      <trkpt lat="59.038134602712" lon="12.19932319935">
        <ele>120.4</ele>
        <time>2017-05-10T17:47:30Z</time>
        <extensions><gpxtpx:TrackPointExtension><gpxtpx:hr>129</gpxtpx:hr></gpxtpx:TrackPointExtension></extensions>
      </trkpt>
      <trkpt lat="59.038068134245" lon="12.199595443462">
        <ele>121</ele>
        <time>2017-05-10T17:47:32Z</time>
        <extensions><gpxtpx:TrackPointExtension><gpxtpx:hr>129</gpxtpx:hr></gpxtpx:TrackPointExtension></extensions>
      </trkpt>
      <trkpt lat="59.038024799822" lon="12.199873387266">
        <ele>121.8</ele>
        <time>2017-05-10T17:47:34Z</time>
        <extensions><gpxtpx:TrackPointExtension><gpxtpx:hr>130</gpxtpx:hr></gpxtpx:TrackPointExtension></extensions>
      </trkpt>
      <trkpt lat="59.037981130123" lon="12.200285022375">
        <ele>122.4</ele>
        <time>2017-05-10T17:47:37Z</time>
        <extensions><gpxtpx:TrackPointExtension><gpxtpx:hr>131</gpxtpx:hr></gpxtpx:TrackPointExtension></extensions>
      </trkpt>
      <trkpt lat="59.037954810957" lon="12.200548549311">
        <ele>122.8</ele>
        <time>2017-05-10T17:47:39Z</time>
        <extensions><gpxtpx:TrackPointExtension><gpxtpx:hr>132</gpxtpx:hr></gpxtpx:TrackPointExtension></extensions>
      </trkpt>
      <trkpt lat="59.037907034127" lon="12.201211976696">
        <ele>124</ele>
        <time>2017-05-10T17:47:44Z</time>
        <extensions><gpxtpx:TrackPointExtension><gpxtpx:hr>134</gpxtpx:hr></gpxtpx:TrackPointExtension></extensions>
      </trkpt>
      <trkpt lat="59.037861771867" lon="12.201876912823">
        <ele>125.2</ele>
        <time>2017-05-10T17:47:49Z</time>
        <extensions><gpxtpx:TrackPointExtension><gpxtpx:hr>135</gpxtpx:hr></gpxtpx:TrackPointExtension></extensions>
      </trkpt>
      <trkpt lat="59.037830339742" lon="12.202275220711">
        <ele>124.6</ele>
        <time>2017-05-10T17:47:52Z</time>
        <extensions><gpxtpx:TrackPointExtension><gpxtpx:hr>136</gpxtpx:hr></gpxtpx:TrackPointExtension></extensions>
      </trkpt>
      <trkpt lat="59.037795219581" lon="12.202689957123">
        <ele>123.8</ele>
        <time>2017-05-10T17:47:55Z</time>
        <extensions><gpxtpx:TrackPointExtension><gpxtpx:hr>136</gpxtpx:hr></gpxtpx:TrackPointExtension></extensions>
      </trkpt>
      <trkpt lat="59.03776429037" lon="12.2033004109">
        <ele>122.4</ele>
        <time>2017-05-10T17:47:59Z</time>
        <extensions><gpxtpx:TrackPointExtension><gpxtpx:hr>136</gpxtpx:hr></gpxtpx:TrackPointExtension></extensions>
      </trkpt>
      <trkpt lat="59.037755489375" lon="12.203452039471">
        <ele>121.8</ele>
        <time>2017-05-10T17:48:00Z</time>
        <extensions><gpxtpx:TrackPointExtension><gpxtpx:hr>136</gpxtpx:hr></gpxtpx:TrackPointExtension></extensions>
      </trkpt>
      <trkpt lat="59.037737719747" lon="12.203745908885">
        <ele>121.4</ele>
        <time>2017-05-10T17:48:02Z</time>
        <extensions><gpxtpx:TrackPointExtension><gpxtpx:hr>137</gpxtpx:hr></gpxtpx:TrackPointExtension></extensions>
      </trkpt>
      <trkpt lat="59.037667479425" lon="12.204776798766">
        <ele>122.2</ele>
        <time>2017-05-10T17:48:09Z</time>
        <extensions><gpxtpx:TrackPointExtension><gpxtpx:hr>138</gpxtpx:hr></gpxtpx:TrackPointExtension></extensions>
      </trkpt>
      <trkpt lat="59.037653984566" lon="12.205462270548">
        <ele>121.8</ele>
        <time>2017-05-10T17:48:14Z</time>
        <extensions><gpxtpx:TrackPointExtension><gpxtpx:hr>137</gpxtpx:hr></gpxtpx:TrackPointExtension></extensions>
      </trkpt>
      <trkpt lat="59.037637807499" lon="12.205590513618">
        <ele>122</ele>
        <time>2017-05-10T17:48:15Z</time>
        <extensions><gpxtpx:TrackPointExtension><gpxtpx:hr>137</gpxtpx:hr></gpxtpx:TrackPointExtension></extensions>
      </trkpt>
      <trkpt lat="59.037561867485" lon="12.205975661923">
        <ele>121.6</ele>
        <time>2017-05-10T17:48:18Z</time>
        <extensions><gpxtpx:TrackPointExtension><gpxtpx:hr>137</gpxtpx:hr></gpxtpx:TrackPointExtension></extensions>
      </trkpt>
      <trkpt lat="59.037294401056" lon="12.206941424441">
        <ele>121.4</ele>
        <time>2017-05-10T17:48:26Z</time>
        <extensions><gpxtpx:TrackPointExtension><gpxtpx:hr>136</gpxtpx:hr></gpxtpx:TrackPointExtension></extensions>
      </trkpt>
      <trkpt lat="59.037047135006" lon="12.207414834153">
        <ele>121.8</ele>
        <time>2017-05-10T17:48:31Z</time>
        <extensions><gpxtpx:TrackPointExtension><gpxtpx:hr>136</gpxtpx:hr></gpxtpx:TrackPointExtension></extensions>
      </trkpt>
      <trkpt lat="59.036581185185" lon="12.20810072503">
        <ele>121.4</ele>
        <time>2017-05-10T17:48:39Z</time>
        <extensions><gpxtpx:TrackPointExtension><gpxtpx:hr>137</gpxtpx:hr></gpxtpx:TrackPointExtension></extensions>
      </trkpt>
      <trkpt lat="59.036241718235" lon="12.208302477363">
        <ele>120.8</ele>
        <time>2017-05-10T17:48:44Z</time>
        <extensions><gpxtpx:TrackPointExtension><gpxtpx:hr>137</gpxtpx:hr></gpxtpx:TrackPointExtension></extensions>
      </trkpt>
      <trkpt lat="59.03617592032" lon="12.208336926972">
        <ele>120.2</ele>
        <time>2017-05-10T17:48:45Z</time>
        <extensions><gpxtpx:TrackPointExtension><gpxtpx:hr>137</gpxtpx:hr></gpxtpx:TrackPointExtension></extensions>
      </trkpt>
      <trkpt lat="59.035854306817" lon="12.208543373169">
        <ele>120.8</ele>
        <time>2017-05-10T17:48:50Z</time>
        <extensions><gpxtpx:TrackPointExtension><gpxtpx:hr>138</gpxtpx:hr></gpxtpx:TrackPointExtension></extensions>
      </trkpt>
      <trkpt lat="59.035365055314" lon="12.209010077361">
        <ele>120.6</ele>
        <time>2017-05-10T17:48:58Z</time>
        <extensions><gpxtpx:TrackPointExtension><gpxtpx:hr>140</gpxtpx:hr></gpxtpx:TrackPointExtension></extensions>
      </trkpt>
      <trkpt lat="59.035236141692" lon="12.209119880251">
        <ele>121.4</ele>
        <time>2017-05-10T17:49:00Z</time>
        <extensions><gpxtpx:TrackPointExtension><gpxtpx:hr>140</gpxtpx:hr></gpxtpx:TrackPointExtension></extensions>
      </trkpt>
      <trkpt lat="59.034742950696" lon="12.209512739904">
        <ele>122.4</ele>
        <time>2017-05-10T17:49:08Z</time>
        <extensions><gpxtpx:TrackPointExtension><gpxtpx:hr>140</gpxtpx:hr></gpxtpx:TrackPointExtension></extensions>
      </trkpt>
      <trkpt lat="59.034677068962" lon="12.209561522562">
        <ele>122.4</ele>
        <time>2017-05-10T17:49:09Z</time>
        <extensions><gpxtpx:TrackPointExtension><gpxtpx:hr>140</gpxtpx:hr></gpxtpx:TrackPointExtension></extensions>
      </trkpt>
      <trkpt lat="59.034159654275" lon="12.209930074705">
        <ele>121</ele>
        <time>2017-05-10T17:49:17Z</time>
        <extensions><gpxtpx:TrackPointExtension><gpxtpx:hr>141</gpxtpx:hr></gpxtpx:TrackPointExtension></extensions>
      </trkpt>
      <trkpt lat="59.033855139848" lon="12.210038285034">
        <ele>121.2</ele>
        <time>2017-05-10T17:49:22Z</time>
        <extensions><gpxtpx:TrackPointExtension><gpxtpx:hr>141</gpxtpx:hr></gpxtpx:TrackPointExtension></extensions>
      </trkpt>
      <trkpt lat="59.033671576238" lon="12.210086229502">
        <ele>121.6</ele>
        <time>2017-05-10T17:49:25Z</time>
        <extensions><gpxtpx:TrackPointExtension><gpxtpx:hr>142</gpxtpx:hr></gpxtpx:TrackPointExtension></extensions>
      </trkpt>
      <trkpt lat="59.033609717816" lon="12.210114308867">
        <ele>122.2</ele>
        <time>2017-05-10T17:49:26Z</time>
        <extensions><gpxtpx:TrackPointExtension><gpxtpx:hr>142</gpxtpx:hr></gpxtpx:TrackPointExtension></extensions>
      </trkpt>
      <trkpt lat="59.033483905497" lon="12.210191254709">
        <ele>122.8</ele>
        <time>2017-05-10T17:49:28Z</time>
        <extensions><gpxtpx:TrackPointExtension><gpxtpx:hr>142</gpxtpx:hr></gpxtpx:TrackPointExtension></extensions>
      </trkpt>
      <trkpt lat="59.033182576192" lon="12.210544803251">
        <ele>122.4</ele>
        <time>2017-05-10T17:49:33Z</time>
        <extensions><gpxtpx:TrackPointExtension><gpxtpx:hr>143</gpxtpx:hr></gpxtpx:TrackPointExtension></extensions>
      </trkpt>
      <trkpt lat="59.032712770697" lon="12.211191383017">
        <ele>122.4</ele>
        <time>2017-05-10T17:49:41Z</time>
        <extensions><gpxtpx:TrackPointExtension><gpxtpx:hr>143</gpxtpx:hr></gpxtpx:TrackPointExtension></extensions>
      </trkpt>
      <trkpt lat="59.032295603534" lon="12.211788258116">
        <ele>121.8</ele>
        <time>2017-05-10T17:49:48Z</time>
        <extensions><gpxtpx:TrackPointExtension><gpxtpx:hr>143</gpxtpx:hr></gpxtpx:TrackPointExtension></extensions>
      </trkpt>
      <trkpt lat="59.032052444615" lon="12.212297877636">
        <ele>122</ele>
        <time>2017-05-10T17:49:53Z</time>
        <extensions><gpxtpx:TrackPointExtension><gpxtpx:hr>142</gpxtpx:hr></gpxtpx:TrackPointExtension></extensions>
      </trkpt>
      <trkpt lat="59.031939121327" lon="12.212804228215">
        <ele>122.8</ele>
        <time>2017-05-10T17:49:57Z</time>
        <extensions><gpxtpx:TrackPointExtension><gpxtpx:hr>141</gpxtpx:hr></gpxtpx:TrackPointExtension></extensions>
      </trkpt>
      <trkpt lat="59.031923698631" lon="12.212931800733">
        <ele>123.2</ele>
        <time>2017-05-10T17:49:58Z</time>
        <extensions><gpxtpx:TrackPointExtension><gpxtpx:hr>141</gpxtpx:hr></gpxtpx:TrackPointExtension></extensions>
      </trkpt>
      <trkpt lat="59.031902492424" lon="12.213312338993">
        <ele>123.8</ele>
        <time>2017-05-10T17:50:01Z</time>
        <extensions><gpxtpx:TrackPointExtension><gpxtpx:hr>141</gpxtpx:hr></gpxtpx:TrackPointExtension></extensions>
      </trkpt>
      <trkpt lat="59.031913556532" lon="12.213566226744">
        <ele>124.6</ele>
        <time>2017-05-10T17:50:03Z</time>
        <extensions><gpxtpx:TrackPointExtension><gpxtpx:hr>142</gpxtpx:hr></gpxtpx:TrackPointExtension></extensions>
      </trkpt>
      <trkpt lat="59.031962925923" lon="12.214305761781">
        <ele>125.8</ele>
        <time>2017-05-10T17:50:09Z</time>
        <extensions><gpxtpx:TrackPointExtension><gpxtpx:hr>143</gpxtpx:hr></gpxtpx:TrackPointExtension></extensions>
      </trkpt>
      <trkpt lat="59.031980192637" lon="12.214539197696">
        <ele>126.2</ele>
        <time>2017-05-10T17:50:11Z</time>
        <extensions><gpxtpx:TrackPointExtension><gpxtpx:hr>144</gpxtpx:hr></gpxtpx:TrackPointExtension></extensions>
      </trkpt>
      <trkpt lat="59.032025622535" lon="12.215301112406">
        <ele>126.8</ele>
        <time>2017-05-10T17:50:18Z</time>
        <extensions><gpxtpx:TrackPointExtension><gpxtpx:hr>145</gpxtpx:hr></gpxtpx:TrackPointExtension></extensions>
      </trkpt>
      <trkpt lat="59.032030400218" lon="12.215404377414">
        <ele>126.8</ele>
        <time>2017-05-10T17:50:19Z</time>
        <extensions><gpxtpx:TrackPointExtension><gpxtpx:hr>145</gpxtpx:hr></gpxtpx:TrackPointExtension></extensions>
      </trkpt>
      <trkpt lat="59.032061161791" lon="12.216284309276">
        <ele>126.6</ele>
        <time>2017-05-10T17:50:27Z</time>
        <extensions><gpxtpx:TrackPointExtension><gpxtpx:hr>146</gpxtpx:hr></gpxtpx:TrackPointExtension></extensions>
      </trkpt>
      <trkpt lat="59.032072393537" lon="12.216979923157">
        <ele>126.8</ele>
        <time>2017-05-10T17:50:33Z</time>
        <extensions><gpxtpx:TrackPointExtension><gpxtpx:hr>146</gpxtpx:hr></gpxtpx:TrackPointExtension></extensions>
      </trkpt>
      <trkpt lat="59.032071890623" lon="12.217335399536">
        <ele>126.6</ele>
        <time>2017-05-10T17:50:36Z</time>
        <extensions><gpxtpx:TrackPointExtension><gpxtpx:hr>145</gpxtpx:hr></gpxtpx:TrackPointExtension></extensions>
      </trkpt>
      <trkpt lat="59.03206040742" lon="12.217817107329">
        <ele>125.8</ele>
        <time>2017-05-10T17:50:40Z</time>
        <extensions><gpxtpx:TrackPointExtension><gpxtpx:hr>143</gpxtpx:hr></gpxtpx:TrackPointExtension></extensions>
      </trkpt>
      <trkpt lat="59.032033166245" lon="12.218326475392">
        <ele>124.6</ele>
        <time>2017-05-10T17:50:44Z</time>
        <extensions><gpxtpx:TrackPointExtension><gpxtpx:hr>142</gpxtpx:hr></gpxtpx:TrackPointExtension></extensions>
      </trkpt>
      <trkpt lat="59.032004667785" lon="12.218715982285">
        <ele>123</ele>
        <time>2017-05-10T17:50:47Z</time>
        <extensions><gpxtpx:TrackPointExtension><gpxtpx:hr>141</gpxtpx:hr></gpxtpx:TrackPointExtension></extensions>
      </trkpt>
      <trkpt lat="59.031977929524" lon="12.218962913059">
        <ele>121.8</ele>
        <time>2017-05-10T17:50:49Z</time>
        <extensions><gpxtpx:TrackPointExtension><gpxtpx:hr>139</gpxtpx:hr></gpxtpx:TrackPointExtension></extensions>
      </trkpt>
      <trkpt lat="59.031941971173" lon="12.219200120829">
        <ele>121.6</ele>
        <time>2017-05-10T17:50:51Z</time>
        <extensions><gpxtpx:TrackPointExtension><gpxtpx:hr>136</gpxtpx:hr></gpxtpx:TrackPointExtension></extensions>
      </trkpt>
      <trkpt lat="59.031873658688" lon="12.219542689082">
        <ele>121.8</ele>
        <time>2017-05-10T17:50:54Z</time>
        <extensions><gpxtpx:TrackPointExtension><gpxtpx:hr>133</gpxtpx:hr></gpxtpx:TrackPointExtension></extensions>
      </trkpt>
      <trkpt lat="59.031836107776" lon="12.219757014265">
        <ele>122.4</ele>
        <time>2017-05-10T17:50:56Z</time>
        <extensions><gpxtpx:TrackPointExtension><gpxtpx:hr>129</gpxtpx:hr></gpxtpx:TrackPointExtension></extensions>
      </trkpt>
      <trkpt lat="59.031831916826" lon="12.219861201282">
        <ele>122.4</ele>
        <time>2017-05-10T17:50:57Z</time>
        <extensions><gpxtpx:TrackPointExtension><gpxtpx:hr>127</gpxtpx:hr></gpxtpx:TrackPointExtension></extensions>
      </trkpt>
      <trkpt lat="59.031867875177" lon="12.220038143191">
        <ele>122.4</ele>
        <time>2017-05-10T17:50:59Z</time>
        <extensions><gpxtpx:TrackPointExtension><gpxtpx:hr>123</gpxtpx:hr></gpxtpx:TrackPointExtension></extensions>
      </trkpt>
      <trkpt lat="59.031905677546" lon="12.220084578917">
        <ele>122.4</ele>
        <time>2017-05-10T17:51:00Z</time>
        <extensions><gpxtpx:TrackPointExtension><gpxtpx:hr>122</gpxtpx:hr></gpxtpx:TrackPointExtension></extensions>
      </trkpt>
      <trkpt lat="59.031990670012" lon="12.220024899789">
        <ele>123</ele>
        <time>2017-05-10T17:51:02Z</time>
        <extensions><gpxtpx:TrackPointExtension><gpxtpx:hr>119</gpxtpx:hr></gpxtpx:TrackPointExtension></extensions>
      </trkpt>
      <trkpt lat="59.032040877593" lon="12.219787440562">
        <ele>123</ele>
        <time>2017-05-10T17:51:05Z</time>
        <extensions><gpxtpx:TrackPointExtension><gpxtpx:hr>116</gpxtpx:hr></gpxtpx:TrackPointExtension></extensions>
      </trkpt>
      <trkpt lat="59.032046325828" lon="12.219592812844">
        <ele>122.8</ele>
        <time>2017-05-10T17:51:07Z</time>
        <extensions><gpxtpx:TrackPointExtension><gpxtpx:hr>115</gpxtpx:hr></gpxtpx:TrackPointExtension></extensions>
      </trkpt>
      <trkpt lat="59.032055126823" lon="12.219499606116">
        <ele>122.6</ele>
        <time>2017-05-10T17:51:08Z</time>
        <extensions><gpxtpx:TrackPointExtension><gpxtpx:hr>116</gpxtpx:hr></gpxtpx:TrackPointExtension></extensions>
      </trkpt>
      <trkpt lat="59.032087397138" lon="12.219321993655">
        <ele>123</ele>
        <time>2017-05-10T17:51:10Z</time>
        <extensions><gpxtpx:TrackPointExtension><gpxtpx:hr>117</gpxtpx:hr></gpxtpx:TrackPointExtension></extensions>
      </trkpt>
      <trkpt lat="59.032133581407" lon="12.219077242175">
        <ele>123.2</ele>
        <time>2017-05-10T17:51:13Z</time>
        <extensions><gpxtpx:TrackPointExtension><gpxtpx:hr>114</gpxtpx:hr></gpxtpx:TrackPointExtension></extensions>
      </trkpt>
      <trkpt lat="59.032155877261" lon="12.218922763758">
        <ele>123.2</ele>
        <time>2017-05-10T17:51:15Z</time>
        <extensions><gpxtpx:TrackPointExtension><gpxtpx:hr>111</gpxtpx:hr></gpxtpx:TrackPointExtension></extensions>
      </trkpt>
      <trkpt lat="59.032157888917" lon="12.218854618911">
        <ele>123.2</ele>
        <time>2017-05-10T17:51:16Z</time>
        <extensions><gpxtpx:TrackPointExtension><gpxtpx:hr>110</gpxtpx:hr></gpxtpx:TrackPointExtension></extensions>
      </trkpt>
      <trkpt lat="59.032160571125" lon="12.218731740257">
        <ele>123.4</ele>
        <time>2017-05-10T17:51:18Z</time>
        <extensions><gpxtpx:TrackPointExtension><gpxtpx:hr>107</gpxtpx:hr></gpxtpx:TrackPointExtension></extensions>
      </trkpt>
      <trkpt lat="59.032170964681" lon="12.218624284299">
        <ele>123.4</ele>
        <time>2017-05-10T17:51:20Z</time>
        <extensions><gpxtpx:TrackPointExtension><gpxtpx:hr>105</gpxtpx:hr></gpxtpx:TrackPointExtension></extensions>
      </trkpt>
      <trkpt lat="59.032196361838" lon="12.218605005929">
        <ele>123.4</ele>
        <time>2017-05-10T17:51:21Z</time>
        <extensions><gpxtpx:TrackPointExtension><gpxtpx:hr>104</gpxtpx:hr></gpxtpx:TrackPointExtension></extensions>
      </trkpt>
      <trkpt lat="59.032247742885" lon="12.218721681977">
        <ele>123.2</ele>
        <time>2017-05-10T17:51:24Z</time>
        <extensions><gpxtpx:TrackPointExtension><gpxtpx:hr>103</gpxtpx:hr></gpxtpx:TrackPointExtension></extensions>
      </trkpt>
      <trkpt lat="59.032246988514" lon="12.218798292543">
        <ele>123</ele>
        <time>2017-05-10T17:51:26Z</time>
        <extensions><gpxtpx:TrackPointExtension><gpxtpx:hr>103</gpxtpx:hr></gpxtpx:TrackPointExtension></extensions>
      </trkpt>
    </trkseg>
  </trk>
</gpx>